createdAt,value
2022-10-05T00:00:28.320Z,101666.41
2022-10-05T00:01:34.002Z,101672.88
2022-10-05T00:02:36.673Z,101674.91
2022-10-05T00:03:40.637Z,101674.34
2022-10-05T00:04:43.144Z,101673.28
2022-10-05T00:05:46.501Z,101670.16
2022-10-05T00:07:12.856Z,101672.53
2022-10-05T00:08:18.398Z,101679.09
2022-10-05T00:09:22.066Z,101676.56
2022-10-05T00:10:24.785Z,101689.69
2022-10-05T00:11:27.349Z,101686.03
2022-10-05T00:12:30.157Z,101683.69
2022-10-05T00:13:32.555Z,101677.59
2022-10-05T00:14:40.576Z,101682.09
2022-10-05T00:15:43.979Z,101670.81
2022-10-05T00:16:47.144Z,101675.50
2022-10-05T00:17:49.821Z,101672.88
2022-10-05T00:18:54.004Z,101675.50
2022-10-05T00:19:56.698Z,101673.22
2022-10-05T00:20:59.048Z,101680.31
2022-10-05T00:22:21.059Z,101672.19
2022-10-05T00:23:29.767Z,101674.75
2022-10-05T00:24:32.289Z,101672.13
2022-10-05T00:25:34.709Z,101671.13
2022-10-05T00:26:37.018Z,101677.19
2022-10-05T00:27:41.304Z,101673.59
2022-10-05T00:28:44.029Z,101667.81
2022-10-05T00:29:51.366Z,101671.78
2022-10-05T00:30:58.275Z,101665.22
2022-10-05T00:32:01.510Z,101669.63
2022-10-05T00:33:03.993Z,101665.75
2022-10-05T00:34:06.356Z,101664.41
2022-10-05T00:35:10.037Z,101667.56
2022-10-05T00:36:12.893Z,101667.31
2022-10-05T00:37:15.408Z,101664.41
2022-10-05T00:38:18.179Z,101659.13
2022-10-05T00:39:20.629Z,101648.63
2022-10-05T00:40:46.380Z,101657.31
2022-10-05T00:42:16.663Z,101653.63
2022-10-05T00:43:34.448Z,101655.84
2022-10-05T00:44:57.032Z,101652.94
2022-10-05T00:46:13.191Z,101653.75
2022-10-05T00:47:18.494Z,101649.63
2022-10-05T00:48:23.837Z,101646.22
2022-10-05T00:49:58.556Z,101651.13
2022-10-05T00:51:26.460Z,101640.09
2022-10-05T00:52:59.287Z,101643.56
2022-10-05T00:54:51.392Z,101649.00
2022-10-05T00:56:05.674Z,101627.97
2022-10-05T00:57:17.341Z,101640.59
2022-10-05T00:58:40.045Z,101632.53
2022-10-05T01:00:08.776Z,101632.84
2022-10-05T01:01:17.572Z,101633.16
2022-10-05T01:02:36.944Z,101637.03
2022-10-05T01:04:33.576Z,101638.31
2022-10-05T01:05:59.573Z,101640.59
2022-10-05T01:07:11.414Z,101641.66
2022-10-05T01:08:34.797Z,101637.78
2022-10-05T01:09:58.160Z,101631.22
2022-10-05T01:11:16.604Z,101624.66
2022-10-05T01:12:43.956Z,101628.34
2022-10-05T01:14:12.874Z,101635.16
2022-10-05T01:15:23.113Z,101633.88
2022-10-05T01:17:06.095Z,101637.03
2022-10-05T01:18:19.730Z,101640.69
2022-10-05T01:19:56.120Z,101632.56
2022-10-05T01:21:23.846Z,101638.84
2022-10-05T01:22:44.883Z,101639.66
2022-10-05T01:24:05.687Z,101644.91
2022-10-05T01:25:26.450Z,101638.09
2022-10-05T01:26:52.363Z,101645.97
2022-10-05T01:28:01.753Z,101645.22
2022-10-05T01:29:15.739Z,101641.78
2022-10-05T01:30:20.610Z,101644.91
2022-10-05T01:31:33.433Z,101650.16
2022-10-05T01:33:13.519Z,101645.47
2022-10-05T01:34:27.595Z,101639.97
2022-10-05T01:35:45.198Z,101649.16
2022-10-05T01:37:26.851Z,101650.25
2022-10-05T01:38:37.894Z,101650.22
2022-10-05T01:39:51.087Z,101655.47
2022-10-05T01:41:16.936Z,101658.94
2022-10-05T01:42:53.225Z,101661.00
2022-10-05T01:44:02.215Z,101662.38
2022-10-05T01:45:04.581Z,101666.06
2022-10-05T01:46:45.289Z,101663.69
2022-10-05T01:47:58.836Z,101666.25
2022-10-05T01:49:28.359Z,101665.00
2022-10-05T01:50:39.430Z,101667.63
2022-10-05T01:51:48.233Z,101664.47
2022-10-05T01:53:05.085Z,101667.09
2022-10-05T01:54:27.651Z,101671.28
2022-10-05T01:55:52.713Z,101666.88
2022-10-05T01:57:35.276Z,101667.66
2022-10-05T01:59:02.080Z,101665.06
2022-10-05T02:00:11.280Z,101673.97
2022-10-05T02:01:28.060Z,101673.22
2022-10-05T02:02:36.621Z,101669.53
2022-10-05T02:03:51.871Z,101669.78
2022-10-05T02:05:06.769Z,101667.44
2022-10-05T02:06:15.882Z,101672.69
2022-10-05T02:07:29.664Z,101671.91
2022-10-05T02:08:47.356Z,101675.56
2022-10-05T02:09:59.693Z,101678.72
2022-10-05T02:11:13.606Z,101689.75
2022-10-05T02:12:20.135Z,101685.56
2022-10-05T02:13:29.680Z,101692.94
2022-10-05T02:14:37.573Z,101684.56
2022-10-05T02:15:46.618Z,101688.22
2022-10-05T02:16:53.913Z,101689.00
2022-10-05T02:18:13.334Z,101683.47
2022-10-05T02:19:22.358Z,101684.53
2022-10-05T02:20:33.216Z,101689.31
2022-10-05T02:21:37.000Z,101686.69
2022-10-05T02:22:45.895Z,101676.94
2022-10-05T02:23:53.863Z,101677.22
2022-10-05T02:25:03.298Z,101674.06
2022-10-05T02:26:09.032Z,101679.63
2022-10-05T02:27:18.559Z,101683.56
2022-10-05T02:28:27.286Z,101689.31
2022-10-05T02:29:35.897Z,101675.88
2022-10-05T02:30:53.282Z,101676.69
2022-10-05T02:32:05.396Z,101679.31
2022-10-05T02:33:22.557Z,101682.47
2022-10-05T02:34:28.272Z,101683.75
2022-10-05T02:35:37.567Z,101687.69
2022-10-05T02:36:41.132Z,101684.03
2022-10-05T02:37:57.519Z,101690.06
2022-10-05T02:39:14.247Z,101687.19
2022-10-05T02:40:42.758Z,101679.84
2022-10-05T02:41:58.082Z,101684.06
2022-10-05T02:43:03.529Z,101683.28
2022-10-05T02:44:55.399Z,101684.63
2022-10-05T02:45:58.475Z,101682.50
2022-10-05T02:47:10.396Z,101691.69
2022-10-05T02:48:28.117Z,101688.28
2022-10-05T02:49:53.576Z,101689.34
2022-10-05T02:51:23.181Z,101692.22
2022-10-05T02:52:58.374Z,101694.06
2022-10-05T02:54:24.543Z,101688.56
2022-10-05T02:56:03.510Z,101684.63
2022-10-05T02:57:25.505Z,101686.75
2022-10-05T02:58:42.941Z,101684.63
2022-10-05T02:59:53.353Z,101690.94
2022-10-05T03:01:26.566Z,101688.31
2022-10-05T03:02:55.831Z,101690.44
2022-10-05T03:04:47.326Z,101685.19
2022-10-05T03:05:58.845Z,101682.03
2022-10-05T03:07:23.861Z,101678.38
2022-10-05T03:08:37.192Z,101688.06
2022-10-05T03:09:49.579Z,101687.81
2022-10-05T03:11:03.671Z,101687.25
2022-10-05T03:12:40.072Z,101696.75
2022-10-05T03:13:55.813Z,101694.13
2022-10-05T03:15:12.335Z,101698.03
2022-10-05T03:16:31.799Z,101702.25
2022-10-05T03:18:09.650Z,101699.88
2022-10-05T03:19:45.333Z,101692.50
2022-10-05T03:21:07.701Z,101692.78
2022-10-05T03:22:48.642Z,101697.25
2022-10-05T03:24:08.251Z,101692.50
2022-10-05T03:25:44.566Z,101692.03
2022-10-05T03:27:13.279Z,101699.91
2022-10-05T03:28:31.231Z,101695.72
2022-10-05T03:30:08.511Z,101699.63
2022-10-05T03:31:28.133Z,101703.03
2022-10-05T03:32:49.173Z,101694.66
2022-10-05T03:34:01.176Z,101696.50
2022-10-05T03:35:31.111Z,101683.69
2022-10-05T03:36:59.318Z,101695.19
2022-10-05T03:38:15.434Z,101689.44
2022-10-05T03:39:49.910Z,101698.34
2022-10-05T03:41:09.970Z,101696.75
2022-10-05T03:42:30.317Z,101692.31
2022-10-05T03:43:53.680Z,101692.81
2022-10-05T03:45:08.045Z,101695.19
2022-10-05T03:46:45.164Z,101697.28
2022-10-05T03:48:11.755Z,101692.06
2022-10-05T03:49:36.999Z,101700.44
2022-10-05T03:50:45.294Z,101701.22
2022-10-05T03:52:17.529Z,101703.59
2022-10-05T03:53:25.320Z,101706.97
2022-10-05T03:54:35.155Z,101698.88
2022-10-05T03:55:44.306Z,101698.63
2022-10-05T03:56:53.118Z,101702.25
2022-10-05T03:57:58.859Z,101702.53
2022-10-05T03:59:13.657Z,101704.91
2022-10-05T04:00:23.826Z,101704.91
2022-10-05T04:01:43.408Z,101708.06
2022-10-05T04:03:26.170Z,101697.31
2022-10-05T04:04:45.747Z,101703.09
2022-10-05T04:05:53.892Z,101703.09
2022-10-05T04:06:58.487Z,101696.00
2022-10-05T04:08:13.572Z,101701.22
2022-10-05T04:09:35.671Z,101695.50
2022-10-05T04:10:52.583Z,101694.69
2022-10-05T04:12:15.434Z,101693.13
2022-10-05T04:13:25.769Z,101689.75
2022-10-05T04:14:34.510Z,101691.03
2022-10-05T04:15:45.101Z,101687.09
2022-10-05T04:16:55.001Z,101691.31
2022-10-05T04:18:06.297Z,101694.69
2022-10-05T04:19:47.096Z,101707.03
2022-10-05T04:20:53.492Z,101702.06
2022-10-05T04:22:04.157Z,101705.97
2022-10-05T04:23:34.601Z,101713.03
2022-10-05T04:25:01.751Z,101711.47
2022-10-05T04:26:15.013Z,101726.94
2022-10-05T04:27:25.143Z,101728.75
2022-10-05T04:28:46.678Z,101729.84
2022-10-05T04:29:58.638Z,101733.75
2022-10-05T04:31:04.354Z,101725.66
2022-10-05T04:32:16.427Z,101726.69
2022-10-05T04:33:21.776Z,101733.75
2022-10-05T04:35:01.731Z,101732.19
2022-10-05T04:36:29.283Z,101730.63
2022-10-05T04:37:59.700Z,101729.31
2022-10-05T04:39:21.679Z,101729.84
2022-10-05T04:40:52.425Z,101732.97
2022-10-05T04:42:16.370Z,101741.88
2022-10-05T04:43:33.752Z,101736.91
2022-10-05T04:44:57.013Z,101745.03
2022-10-05T04:46:11.668Z,101736.13
2022-10-05T04:47:39.147Z,101737.72
2022-10-05T04:49:10.626Z,101735.09
2022-10-05T04:50:25.001Z,101729.84
2022-10-05T04:51:57.150Z,101731.13
2022-10-05T04:53:50.415Z,101730.88
2022-10-05T04:55:22.776Z,101735.31
2022-10-05T04:56:42.800Z,101742.91
2022-10-05T04:57:45.676Z,101735.59
2022-10-05T04:59:05.810Z,101743.97
2022-10-05T05:00:37.973Z,101735.31
2022-10-05T05:01:55.889Z,101743.94
2022-10-05T05:02:58.325Z,101741.31
2022-10-05T05:04:18.894Z,101733.97
2022-10-05T05:06:17.018Z,101743.91
2022-10-05T05:07:44.954Z,101740.22
2022-10-05T05:08:57.679Z,101736.53
2022-10-05T05:10:12.682Z,101744.91
2022-10-05T05:11:33.611Z,101745.41
2022-10-05T05:13:13.031Z,101741.72
2022-10-05T05:14:34.631Z,101739.59
2022-10-05T05:15:40.125Z,101746.91
2022-10-05T05:16:47.126Z,101744.81
2022-10-05T05:17:56.643Z,101746.34
2022-10-05T05:19:07.636Z,101752.59
2022-10-05T05:20:33.927Z,101746.13
2022-10-05T05:21:44.824Z,101752.84
2022-10-05T05:22:51.247Z,101742.13
2022-10-05T05:24:11.723Z,101742.41
2022-10-05T05:25:38.062Z,101735.94
2022-10-05T05:26:40.686Z,101750.38
2022-10-05T05:27:57.899Z,101744.41
2022-10-05T05:29:09.224Z,101745.63
2022-10-05T05:30:22.158Z,101737.88
2022-10-05T05:31:55.880Z,101743.09
2022-10-05T05:33:08.675Z,101738.13
2022-10-05T05:34:34.105Z,101742.63
2022-10-05T05:35:45.537Z,101741.75
2022-10-05T05:37:17.121Z,101736.75
2022-10-05T05:38:25.897Z,101737.97
2022-10-05T05:40:18.426Z,101745.44
2022-10-05T05:41:39.864Z,101742.81
2022-10-05T05:42:44.111Z,101748.50
2022-10-05T05:44:32.503Z,101741.00
2022-10-05T05:45:55.670Z,101748.06
2022-10-05T05:47:27.156Z,101744.44
2022-10-05T05:48:46.995Z,101744.81
2022-10-05T05:50:07.674Z,101741.19
2022-10-05T05:51:29.287Z,101747.63
2022-10-05T05:52:49.895Z,101746.16
2022-10-05T05:54:15.621Z,101751.28
2022-10-05T05:55:31.569Z,101752.53
2022-10-05T05:56:43.790Z,101759.03
2022-10-05T05:57:56.879Z,101757.41
2022-10-05T05:59:06.728Z,101760.97
2022-10-05T06:00:15.170Z,101756.88
2022-10-05T06:01:59.272Z,101766.94
2022-10-05T06:03:20.373Z,101772.34
2022-10-05T06:04:28.930Z,101769.78
2022-10-05T06:05:38.664Z,101770.50
2022-10-05T06:06:47.410Z,101775.06
2022-10-05T06:07:52.871Z,101769.72
2022-10-05T06:09:03.360Z,101770.03
2022-10-05T06:10:33.684Z,101778.84
2022-10-05T06:11:47.958Z,101780.41
2022-10-05T06:12:58.499Z,101787.44
2022-10-05T06:14:24.159Z,101794.00
2022-10-05T06:15:41.712Z,101796.09
2022-10-05T06:17:19.309Z,101800.78
2022-10-05T06:18:23.377Z,101795.28
2022-10-05T06:19:32.636Z,101798.88
2022-10-05T06:20:43.671Z,101800.91
2022-10-05T06:22:02.901Z,101794.84
2022-10-05T06:23:15.136Z,101797.72
2022-10-05T06:24:25.852Z,101805.38
2022-10-05T06:25:42.713Z,101809.81
2022-10-05T06:27:03.692Z,101805.84
2022-10-05T06:28:13.223Z,101807.59
2022-10-05T06:29:25.523Z,101816.69
2022-10-05T06:30:38.053Z,101819.19
2022-10-05T06:32:01.818Z,101824.56
2022-10-05T06:33:31.382Z,101839.06
2022-10-05T06:34:59.694Z,101841.91
2022-10-05T06:36:25.102Z,101858.75
2022-10-05T06:38:18.397Z,101857.53
2022-10-05T06:39:51.159Z,101867.31
2022-10-05T06:40:56.593Z,101870.09
2022-10-05T06:42:23.846Z,101868.50
2022-10-05T06:44:06.386Z,101869.72
2022-10-05T06:47:45.147Z,101865.75
2022-10-05T06:49:16.211Z,101868.59
2022-10-05T06:51:03.517Z,101868.50
2022-10-05T06:53:01.563Z,101874.84
2022-10-05T06:54:11.777Z,101877.75
2022-10-05T06:55:41.626Z,101889.22
2022-10-05T06:57:12.587Z,101888.78
2022-10-05T06:58:43.047Z,101900.13
2022-10-05T07:00:02.275Z,101908.44
2022-10-05T07:01:34.650Z,101914.94
2022-10-05T07:02:55.641Z,101918.34
2022-10-05T07:04:25.074Z,101909.78
2022-10-05T07:06:06.120Z,101916.47
2022-10-05T07:07:40.543Z,101921.59
2022-10-05T07:09:14.388Z,101915.03
2022-10-05T07:10:27.756Z,101923.94
2022-10-05T07:12:04.501Z,101917.66
2022-10-05T07:13:25.229Z,101922.69
2022-10-05T07:14:46.383Z,101930.91
2022-10-05T07:16:07.942Z,101935.25
2022-10-05T07:17:58.572Z,101930.16
2022-10-05T07:19:19.503Z,101927.09
2022-10-05T07:20:33.782Z,101918.09
2022-10-05T07:21:54.334Z,101911.84
2022-10-05T07:23:41.902Z,101905.16
2022-10-05T07:24:47.384Z,101906.78
2022-10-05T07:26:02.032Z,101895.63
2022-10-05T07:27:12.875Z,101901.03
2022-10-05T07:28:44.485Z,101895.78
2022-10-05T07:29:56.724Z,101891.31
2022-10-05T07:31:07.356Z,101891.38
2022-10-05T07:32:34.345Z,101887.88
2022-10-05T07:33:48.541Z,101894.63
2022-10-05T07:35:48.494Z,101892.16
2022-10-05T07:37:19.468Z,101878.50
2022-10-05T07:38:27.840Z,101875.84
2022-10-05T07:40:00.694Z,101872.81
2022-10-05T07:41:23.081Z,101853.81
2022-10-05T07:42:50.666Z,101852.97
2022-10-05T07:44:12.547Z,101845.28
2022-10-05T07:45:29.133Z,101846.94
2022-10-05T07:47:01.290Z,101854.97
2022-10-05T07:48:14.906Z,101843.97
2022-10-05T07:49:47.305Z,101842.41
2022-10-05T07:50:57.637Z,101843.19
2022-10-05T07:52:11.494Z,101850.50
2022-10-05T07:53:26.029Z,101863.13
2022-10-05T07:54:50.114Z,101866.72
2022-10-05T07:56:10.252Z,101875.84
2022-10-05T07:57:26.721Z,101860.75
2022-10-05T07:58:38.512Z,101855.16
2022-10-05T07:59:55.161Z,101843.59
2022-10-05T08:01:08.402Z,101837.88
2022-10-05T08:02:24.471Z,101835.34
2022-10-05T08:03:50.170Z,101845.50
2022-10-05T08:05:07.255Z,101849.41
2022-10-05T08:06:25.552Z,101848.53
2022-10-05T08:07:31.965Z,101861.94
2022-10-05T08:08:51.021Z,101865.63
2022-10-05T08:10:04.541Z,101862.97
2022-10-05T08:11:29.420Z,101864.19
2022-10-05T08:12:43.458Z,101869.41
2022-10-05T08:13:56.458Z,101857.94
2022-10-05T08:15:10.544Z,101874.50
2022-10-05T08:16:14.729Z,101873.72
2022-10-05T08:17:54.967Z,101882.69
2022-10-05T08:19:03.685Z,101884.75
2022-10-05T08:20:23.388Z,101880.72
2022-10-05T08:21:43.677Z,101886.38
2022-10-05T08:22:55.257Z,101874.41
2022-10-05T08:24:13.848Z,101874.91
2022-10-05T08:25:46.480Z,101884.50
2022-10-05T08:27:05.914Z,101888.72
2022-10-05T08:28:22.902Z,101892.97
2022-10-05T08:30:06.018Z,101891.38
2022-10-05T08:31:57.238Z,101893.09
2022-10-05T08:33:15.148Z,101886.34
2022-10-05T08:34:34.962Z,101898.72
2022-10-05T08:35:56.551Z,101895.78
2022-10-05T08:37:06.224Z,101892.91
2022-10-05T08:38:36.935Z,101895.91
2022-10-05T08:39:54.943Z,101903.44
2022-10-05T08:41:27.048Z,101904.72
2022-10-05T08:43:19.709Z,101900.91
2022-10-05T08:44:45.732Z,101909.50
2022-10-05T08:46:29.756Z,101907.84
2022-10-05T08:47:55.484Z,101897.44
2022-10-05T08:49:35.048Z,101903.63
2022-10-05T08:51:08.651Z,101902.44
2022-10-05T08:52:35.022Z,101907.41
2022-10-05T08:54:07.830Z,101917.94
2022-10-05T08:55:32.702Z,101920.47
2022-10-05T08:56:36.609Z,101915.59
2022-10-05T08:58:12.871Z,101909.94
2022-10-05T08:59:41.557Z,101901.72
2022-10-05T09:00:56.635Z,101897.91
2022-10-05T09:02:37.726Z,101892.94
2022-10-05T09:04:06.731Z,101890.84
2022-10-05T09:05:19.488Z,101887.59
2022-10-05T09:06:46.077Z,101881.19
2022-10-05T09:08:04.278Z,101880.25
2022-10-05T09:09:25.889Z,101878.50
2022-10-05T09:10:39.579Z,101882.78
2022-10-05T09:12:20.136Z,101879.47
2022-10-05T09:13:25.290Z,101884.03
2022-10-05T09:15:24.793Z,101882.25
2022-10-05T09:17:02.401Z,101878.44
2022-10-05T09:18:26.880Z,101884.47
2022-10-05T09:19:53.026Z,101883.75
2022-10-05T09:21:14.111Z,101883.03
2022-10-05T09:22:51.710Z,101877.28
2022-10-05T09:24:15.280Z,101879.63
2022-10-05T09:25:42.963Z,101880.94
2022-10-05T09:27:03.486Z,101870.47
2022-10-05T09:28:20.751Z,101866.97
2022-10-05T09:29:54.384Z,101855.59
2022-10-05T09:31:29.715Z,101861.00
2022-10-05T09:32:41.590Z,101867.81
2022-10-05T09:33:55.855Z,101867.06
2022-10-05T09:35:36.149Z,101871.59
2022-10-05T09:36:53.695Z,101875.41
2022-10-05T09:38:12.582Z,101877.16
2022-10-05T09:40:01.938Z,101869.81
2022-10-05T09:41:47.412Z,101874.72
2022-10-05T09:43:07.184Z,101871.69
2022-10-05T09:44:24.627Z,101867.50
2022-10-05T09:45:36.029Z,101867.56
2022-10-05T09:46:47.842Z,101873.25
2022-10-05T09:48:02.700Z,101876.72
2022-10-05T09:49:37.256Z,101883.00
2022-10-05T09:51:06.642Z,101877.16
2022-10-05T09:52:22.273Z,101876.34
2022-10-05T09:53:42.302Z,101877.56
2022-10-05T09:54:53.505Z,101880.50
2022-10-05T09:56:10.168Z,101882.75
2022-10-05T09:57:42.621Z,101888.16
2022-10-05T09:59:30.638Z,101892.66
2022-10-05T10:01:08.811Z,101890.41
2022-10-05T10:02:53.951Z,101905.19
2022-10-05T10:04:28.646Z,101903.31
2022-10-05T10:06:10.781Z,101898.09
2022-10-05T10:07:30.644Z,101903.56
2022-10-05T10:09:01.447Z,101893.59
2022-10-05T10:10:34.690Z,101892.56
2022-10-05T10:11:47.157Z,101906.63
2022-10-05T10:13:30.235Z,101914.16
2022-10-05T10:14:44.859Z,101909.34
2022-10-05T10:16:04.557Z,101918.41
2022-10-05T10:17:41.886Z,101921.31
2022-10-05T10:19:07.508Z,101910.03
2022-10-05T10:20:13.160Z,101911.50
2022-10-05T10:21:43.020Z,101899.06
2022-10-05T10:23:28.004Z,101903.09
2022-10-05T10:24:58.639Z,101890.78
2022-10-05T10:27:06.015Z,101886.88
2022-10-05T10:28:36.411Z,101888.47
2022-10-05T10:30:21.859Z,101876.38
2022-10-05T10:31:56.316Z,101880.06
2022-10-05T10:33:34.321Z,101888.88
2022-10-05T10:34:54.138Z,101889.06
2022-10-05T10:36:23.674Z,101884.56
2022-10-05T10:37:35.945Z,101897.03
2022-10-05T10:39:04.178Z,101894.19
2022-10-05T10:40:25.782Z,101890.69
2022-10-05T10:41:51.304Z,101885.50
2022-10-05T10:43:06.117Z,101902.91
2022-10-05T10:44:31.638Z,101901.19
2022-10-05T10:46:09.644Z,101894.97
2022-10-05T10:47:55.779Z,101892.13
2022-10-05T10:49:15.956Z,101891.59
2022-10-05T10:50:58.481Z,101889.63
2022-10-05T10:52:27.638Z,101897.72
2022-10-05T10:53:52.778Z,101898.44
2022-10-05T10:55:13.194Z,101903.66
2022-10-05T10:56:44.293Z,101896.63
2022-10-05T10:58:42.981Z,101891.06
2022-10-05T11:00:11.403Z,101893.34
2022-10-05T11:01:58.422Z,101885.28
2022-10-05T11:03:21.039Z,101886.25
2022-10-05T11:04:57.563Z,101880.94
2022-10-05T11:06:00.131Z,101880.25
2022-10-05T11:07:17.703Z,101879.34
2022-10-05T11:08:20.332Z,101872.28
2022-10-05T11:09:29.924Z,101870.81
2022-10-05T11:10:54.076Z,101878.84
2022-10-05T11:12:18.231Z,101878.13
2022-10-05T11:13:50.386Z,101875.06
2022-10-05T11:15:05.095Z,101875.88
2022-10-05T11:16:43.374Z,101867.31
2022-10-05T11:17:53.191Z,101869.88
2022-10-05T11:20:02.854Z,101874.47
2022-10-05T11:21:47.229Z,101875.59
2022-10-05T11:23:34.229Z,101877.75
2022-10-05T11:24:58.572Z,101875.84
2022-10-05T11:26:19.296Z,101879.22
2022-10-05T11:27:37.840Z,101887.41
2022-10-05T11:29:13.899Z,101882.47
2022-10-05T11:30:26.010Z,101879.53
2022-10-05T11:31:40.751Z,101874.72
2022-10-05T11:33:12.072Z,101869.56
2022-10-05T11:34:28.629Z,101874.06
2022-10-05T11:35:46.932Z,101864.97
2022-10-05T11:37:14.225Z,101863.16
2022-10-05T11:38:26.465Z,101854.19
2022-10-05T11:39:55.017Z,101858.41
2022-10-05T11:41:15.901Z,101856.22
2022-10-05T11:42:56.237Z,101847.53
2022-10-05T11:44:19.999Z,101848.13
2022-10-05T11:46:20.997Z,101849.59
2022-10-05T11:47:26.072Z,101852.75
2022-10-05T11:48:44.310Z,101845.09
2022-10-05T11:50:06.723Z,101844.75
2022-10-05T11:51:31.320Z,101853.94
2022-10-05T11:52:45.098Z,101846.81
2022-10-05T11:54:02.234Z,101851.81
2022-10-05T11:55:26.680Z,101841.34
2022-10-05T11:56:37.292Z,101849.41
2022-10-05T11:58:11.868Z,101853.09
2022-10-05T11:59:34.717Z,101848.91
2022-10-05T12:00:54.897Z,101847.97
2022-10-05T12:02:25.533Z,101846.56
2022-10-05T12:03:35.440Z,101843.22
2022-10-05T12:04:46.718Z,101852.00
2022-10-05T12:06:06.702Z,101838.00
2022-10-05T12:07:21.124Z,101833.53
2022-10-05T12:08:49.644Z,101832.22
2022-10-05T12:10:17.553Z,101829.56
2022-10-05T12:11:29.730Z,101835.63
2022-10-05T12:12:50.171Z,101827.88
2022-10-05T12:14:34.958Z,101833.47
2022-10-05T12:15:59.161Z,101835.72
2022-10-05T12:17:12.793Z,101836.84
2022-10-05T12:18:30.292Z,101832.03
2022-10-05T12:19:44.480Z,101823.75
2022-10-05T12:20:54.479Z,101822.13
2022-10-05T12:22:04.227Z,101823.25
2022-10-05T12:23:26.273Z,101823.38
2022-10-05T12:25:01.757Z,101816.06
2022-10-05T12:26:11.339Z,101815.00
2022-10-05T12:27:27.150Z,101811.09
2022-10-05T12:28:42.577Z,101812.47
2022-10-05T12:29:53.907Z,101805.09
2022-10-05T12:31:02.469Z,101812.75
2022-10-05T12:32:13.809Z,101803.94
2022-10-05T12:33:25.894Z,101805.13
2022-10-05T12:35:04.874Z,101807.09
2022-10-05T12:36:11.946Z,101810.84
2022-10-05T12:37:54.711Z,101808.41
2022-10-05T12:39:17.523Z,101810.31
2022-10-05T12:40:38.397Z,101809.34
2022-10-05T12:41:46.797Z,101796.63
2022-10-05T12:43:03.261Z,101794.78
2022-10-05T12:44:26.546Z,101802.16
2022-10-05T12:45:46.419Z,101801.25
2022-10-05T12:47:01.575Z,101799.47
2022-10-05T12:48:22.064Z,101812.59
2022-10-05T12:49:31.774Z,101808.66
2022-10-05T12:50:49.308Z,101813.09
2022-10-05T12:52:01.854Z,101806.72
2022-10-05T12:53:41.681Z,101812.13
2022-10-05T12:54:58.842Z,101803.00
2022-10-05T12:56:23.355Z,101807.97
2022-10-05T12:57:44.649Z,101805.31
2022-10-05T12:59:14.542Z,101798.44
2022-10-05T13:00:22.932Z,101802.94
2022-10-05T13:01:28.463Z,101804.09
2022-10-05T13:02:45.486Z,101800.56
2022-10-05T13:04:16.160Z,101801.22
2022-10-05T13:05:26.923Z,101806.63
2022-10-05T13:07:15.284Z,101799.50
2022-10-05T13:08:31.552Z,101812.88
2022-10-05T13:09:50.263Z,101807.50
2022-10-05T13:11:31.756Z,101806.88
2022-10-05T13:12:48.204Z,101811.19
2022-10-05T13:13:58.234Z,101814.69
2022-10-05T13:15:05.675Z,101814.16
2022-10-05T13:16:28.883Z,101814.88
2022-10-05T13:17:36.892Z,101811.66
2022-10-05T13:18:54.668Z,101815.59
2022-10-05T13:20:10.260Z,101813.78
2022-10-05T13:21:18.627Z,101812.94
2022-10-05T13:22:36.768Z,101805.00
2022-10-05T13:23:39.234Z,101810.63
2022-10-05T13:25:06.192Z,101807.44
2022-10-05T13:26:32.562Z,101811.16
2022-10-05T13:27:45.281Z,101803.66
2022-10-05T13:28:57.010Z,101805.44
2022-10-05T13:30:02.881Z,101806.88
2022-10-05T13:31:24.170Z,101801.78
2022-10-05T13:32:39.240Z,101801.22
2022-10-05T13:33:53.517Z,101801.34
2022-10-05T13:35:17.254Z,101804.97
2022-10-05T13:37:02.295Z,101797.94
2022-10-05T13:38:23.475Z,101809.41
2022-10-05T13:40:06.378Z,101808.25
2022-10-05T13:41:23.852Z,101815.44
2022-10-05T13:42:37.948Z,101811.72
2022-10-05T13:43:58.553Z,101805.25
2022-10-05T13:45:11.898Z,101798.84
2022-10-05T13:46:22.081Z,101807.56
2022-10-05T13:47:30.125Z,101798.44
2022-10-05T13:49:03.706Z,101800.94
2022-10-05T13:50:14.387Z,101802.94
2022-10-05T13:51:24.476Z,101798.41
2022-10-05T13:52:42.598Z,101812.75
2022-10-05T13:54:25.611Z,101803.38
2022-10-05T13:55:47.794Z,101803.22
2022-10-05T13:56:56.780Z,101808.56
2022-10-05T13:58:30.068Z,101807.66
2022-10-05T13:59:40.848Z,101805.03
2022-10-05T14:00:58.577Z,101803.66
2022-10-05T14:02:11.139Z,101800.88
2022-10-05T14:03:29.813Z,101807.81
2022-10-05T14:04:45.678Z,101803.09
2022-10-05T14:05:57.652Z,101798.78
2022-10-05T14:07:34.436Z,101802.56
2022-10-05T14:08:48.245Z,101800.56
2022-10-05T14:09:50.973Z,101796.78
2022-10-05T14:10:54.538Z,101796.38
2022-10-05T14:12:14.376Z,101799.97
2022-10-05T14:13:45.330Z,101801.13
2022-10-05T14:14:52.779Z,101800.56
2022-10-05T14:19:06.726Z,101791.44
2022-10-05T14:20:28.999Z,101798.72
2022-10-05T14:21:42.839Z,101791.38
2022-10-05T14:26:56.132Z,101796.38
2022-10-05T14:28:10.346Z,101791.84
2022-10-05T14:29:54.292Z,101794.84
2022-10-05T14:31:26.818Z,101796.56
2022-10-05T14:32:44.411Z,101789.59
2022-10-05T14:33:46.932Z,101796.84
2022-10-05T14:35:13.107Z,101792.50
2022-10-05T14:36:44.117Z,101787.34
2022-10-05T14:37:53.984Z,101790.03
2022-10-05T14:38:58.704Z,101785.34
2022-10-05T14:40:26.750Z,101787.22
2022-10-05T14:41:35.236Z,101794.16
2022-10-05T14:42:47.084Z,101795.88
2022-10-05T14:44:09.900Z,101779.94
2022-10-05T14:45:18.679Z,101785.53
2022-10-05T14:46:53.987Z,101783.28
2022-10-05T14:48:00.547Z,101791.13
2022-10-05T14:49:27.670Z,101790.91
2022-10-05T14:50:31.647Z,101792.38
2022-10-05T14:51:34.934Z,101799.41
2022-10-05T14:52:41.385Z,101785.41
2022-10-05T14:53:55.957Z,101793.03
2022-10-05T14:55:01.368Z,101787.63
2022-10-05T14:56:12.791Z,101792.69
2022-10-05T14:57:29.489Z,101781.50
2022-10-05T14:59:10.538Z,101781.72
2022-10-05T15:00:18.970Z,101785.09
2022-10-05T15:01:32.622Z,101782.13
2022-10-05T15:02:56.350Z,101777.56
2022-10-05T15:06:58.545Z,101769.28
2022-10-05T15:08:12.816Z,101774.75
2022-10-05T15:09:47.466Z,101773.22
2022-10-05T15:11:12.963Z,101779.31
2022-10-05T15:12:34.012Z,101776.44
2022-10-05T15:13:48.678Z,101780.56
2022-10-05T15:15:04.012Z,101775.78
2022-10-05T15:16:29.505Z,101766.69
2022-10-05T15:17:54.094Z,101776.34
2022-10-05T15:19:29.987Z,101782.66
2022-10-05T15:21:08.193Z,101786.69
2022-10-05T15:22:51.195Z,101779.22
2022-10-05T15:24:17.937Z,101778.56
2022-10-05T15:25:57.633Z,101784.66
2022-10-05T15:29:22.527Z,101774.88
2022-10-05T15:32:31.999Z,101776.50
2022-10-05T15:33:41.024Z,101764.50
2022-10-05T15:35:52.196Z,101768.28
2022-10-05T15:37:28.164Z,101778.41
2022-10-05T15:39:14.692Z,101773.75